sensor_id;sensor_type;location;lat;lon;timestamp;P1;durP1;ratioP1;P2;durP2;ratioP2
52608;SDS011;38503;48.544;12.142;2022-07-12T00:01:54;3.63;;;3.17;;
52608;SDS011;38503;48.544;12.142;2022-07-12T00:04:21;3.20;;;2.83;;
52608;SDS011;38503;48.544;12.142;2022-07-12T00:06:48;3.03;;;2.83;;
52608;SDS011;38503;48.544;12.142;2022-07-12T00:09:15;3.77;;;3.10;;
52608;SDS011;38503;48.544;12.142;2022-07-12T00:11:42;3.40;;;3.07;;
52608;SDS011;38503;48.544;12.142;2022-07-12T00:14:09;3.30;;;3.00;;
52608;SDS011;38503;48.544;12.142;2022-07-12T00:16:36;4.23;;;3.20;;
52608;SDS011;38503;48.544;12.142;2022-07-12T00:19:04;3.43;;;3.13;;
52608;SDS011;38503;48.544;12.142;2022-07-12T00:21:31;3.50;;;3.10;;
52608;SDS011;38503;48.544;12.142;2022-07-12T00:23:57;3.67;;;3.37;;
52608;SDS011;38503;48.544;12.142;2022-07-12T00:26:25;10.83;;;3.73;;
52608;SDS011;38503;48.544;12.142;2022-07-12T00:28:55;4.33;;;3.93;;
52608;SDS011;38503;48.544;12.142;2022-07-12T00:31:22;4.43;;;4.03;;
52608;SDS011;38503;48.544;12.142;2022-07-12T00:33:49;4.20;;;3.80;;
52608;SDS011;38503;48.544;12.142;2022-07-12T00:36:16;5.57;;;3.53;;
52608;SDS011;38503;48.544;12.142;2022-07-12T00:38:43;4.10;;;3.53;;
52608;SDS011;38503;48.544;12.142;2022-07-12T00:41:10;4.30;;;3.87;;
52608;SDS011;38503;48.544;12.142;2022-07-12T00:43:37;3.87;;;3.50;;
52608;SDS011;38503;48.544;12.142;2022-07-12T00:46:04;3.83;;;3.53;;
52608;SDS011;38503;48.544;12.142;2022-07-12T00:48:34;4.83;;;3.60;;
52608;SDS011;38503;48.544;12.142;2022-07-12T00:51:02;4.10;;;3.70;;
52608;SDS011;38503;48.544;12.142;2022-07-12T00:53:29;4.83;;;4.10;;
52608;SDS011;38503;48.544;12.142;2022-07-12T00:55:57;3.97;;;3.57;;
52608;SDS011;38503;48.544;12.142;2022-07-12T00:58:25;5.47;;;3.83;;
52608;SDS011;38503;48.544;12.142;2022-07-12T01:00:57;5.83;;;3.87;;
52608;SDS011;38503;48.544;12.142;2022-07-12T01:03:25;3.80;;;3.50;;
52608;SDS011;38503;48.544;12.142;2022-07-12T01:05:54;4.17;;;3.77;;
52608;SDS011;38503;48.544;12.142;2022-07-12T01:08:21;9.40;;;4.77;;
52608;SDS011;38503;48.544;12.142;2022-07-12T01:10:49;4.43;;;3.70;;
52608;SDS011;38503;48.544;12.142;2022-07-12T01:13:16;3.83;;;3.53;;
52608;SDS011;38503;48.544;12.142;2022-07-12T01:15:44;4.40;;;4.00;;
52608;SDS011;38503;48.544;12.142;2022-07-12T01:18:13;4.77;;;3.93;;
52608;SDS011;38503;48.544;12.142;2022-07-12T01:20:42;5.10;;;4.00;;
52608;SDS011;38503;48.544;12.142;2022-07-12T01:23:11;4.10;;;3.80;;
52608;SDS011;38503;48.544;12.142;2022-07-12T01:25:39;4.40;;;4.00;;
52608;SDS011;38503;48.544;12.142;2022-07-12T01:28:06;5.07;;;4.20;;
52608;SDS011;38503;48.544;12.142;2022-07-12T01:30:32;4.77;;;4.37;;
52608;SDS011;38503;48.544;12.142;2022-07-12T01:32:59;4.43;;;4.03;;
52608;SDS011;38503;48.544;12.142;2022-07-12T01:35:27;4.40;;;4.00;;
52608;SDS011;38503;48.544;12.142;2022-07-12T01:37:55;5.30;;;4.17;;
52608;SDS011;38503;48.544;12.142;2022-07-12T01:40:22;4.17;;;3.77;;
52608;SDS011;38503;48.544;12.142;2022-07-12T01:42:50;4.63;;;4.23;;
52608;SDS011;38503;48.544;12.142;2022-07-12T01:45:18;4.90;;;4.40;;
52608;SDS011;38503;48.544;12.142;2022-07-12T01:47:46;4.17;;;3.87;;
52608;SDS011;38503;48.544;12.142;2022-07-12T01:50:13;5.53;;;4.27;;
52608;SDS011;38503;48.544;12.142;2022-07-12T01:52:40;5.53;;;4.10;;
52608;SDS011;38503;48.544;12.142;2022-07-12T01:55:08;4.70;;;4.17;;
52608;SDS011;38503;48.544;12.142;2022-07-12T01:57:37;4.83;;;4.43;;
52608;SDS011;38503;48.544;12.142;2022-07-12T02:00:05;5.83;;;4.83;;
52608;SDS011;38503;48.544;12.142;2022-07-12T02:02:33;5.40;;;4.90;;
52608;SDS011;38503;48.544;12.142;2022-07-12T02:05:01;6.00;;;5.50;;
52608;SDS011;38503;48.544;12.142;2022-07-12T02:07:29;5.50;;;5.00;;
52608;SDS011;38503;48.544;12.142;2022-07-12T02:09:56;6.00;;;5.40;;
52608;SDS011;38503;48.544;12.142;2022-07-12T02:12:24;5.60;;;5.10;;
52608;SDS011;38503;48.544;12.142;2022-07-12T02:14:51;6.37;;;5.50;;
52608;SDS011;38503;48.544;12.142;2022-07-12T02:17:18;6.37;;;5.30;;
52608;SDS011;38503;48.544;12.142;2022-07-12T02:19:45;6.17;;;5.33;;
52608;SDS011;38503;48.544;12.142;2022-07-12T02:22:12;5.63;;;5.13;;
52608;SDS011;38503;48.544;12.142;2022-07-12T02:24:39;6.13;;;5.57;;
52608;SDS011;38503;48.544;12.142;2022-07-12T02:27:06;6.20;;;5.60;;
52608;SDS011;38503;48.544;12.142;2022-07-12T02:29:34;8.23;;;6.73;;
52608;SDS011;38503;48.544;12.142;2022-07-12T02:32:03;6.80;;;6.10;;
52608;SDS011;38503;48.544;12.142;2022-07-12T02:34:30;6.90;;;6.30;;
52608;SDS011;38503;48.544;12.142;2022-07-12T02:36:57;7.00;;;6.40;;
52608;SDS011;38503;48.544;12.142;2022-07-12T02:39:24;6.43;;;5.83;;
52608;SDS011;38503;48.544;12.142;2022-07-12T02:41:51;6.27;;;5.63;;
52608;SDS011;38503;48.544;12.142;2022-07-12T02:44:18;7.63;;;6.93;;
52608;SDS011;38503;48.544;12.142;2022-07-12T02:46:46;6.23;;;5.63;;
52608;SDS011;38503;48.544;12.142;2022-07-12T02:49:13;6.93;;;6.10;;
52608;SDS011;38503;48.544;12.142;2022-07-12T02:51:40;6.60;;;5.40;;
52608;SDS011;38503;48.544;12.142;2022-07-12T02:54:07;6.40;;;5.23;;
52608;SDS011;38503;48.544;12.142;2022-07-12T02:56:34;5.87;;;5.37;;
52608;SDS011;38503;48.544;12.142;2022-07-12T02:59:01;6.47;;;5.87;;
52608;SDS011;38503;48.544;12.142;2022-07-12T03:01:28;5.87;;;5.30;;
52608;SDS011;38503;48.544;12.142;2022-07-12T03:03:55;6.30;;;5.70;;
52608;SDS011;38503;48.544;12.142;2022-07-12T03:06:22;6.20;;;5.13;;
52608;SDS011;38503;48.544;12.142;2022-07-12T03:08:49;5.80;;;5.20;;
52608;SDS011;38503;48.544;12.142;2022-07-12T03:11:16;24.27;;;12.13;;
52608;SDS011;38503;48.544;12.142;2022-07-12T03:13:43;13.30;;;7.53;;
52608;SDS011;38503;48.544;12.142;2022-07-12T03:16:10;7.17;;;5.67;;
52608;SDS011;38503;48.544;12.142;2022-07-12T03:18:38;5.73;;;5.17;;
52608;SDS011;38503;48.544;12.142;2022-07-12T03:21:06;8.13;;;5.90;;
52608;SDS011;38503;48.544;12.142;2022-07-12T03:23:33;6.10;;;5.50;;
52608;SDS011;38503;48.544;12.142;2022-07-12T03:26:00;5.60;;;5.00;;
52608;SDS011;38503;48.544;12.142;2022-07-12T03:28:28;6.70;;;5.80;;
52608;SDS011;38503;48.544;12.142;2022-07-12T03:30:55;5.90;;;5.40;;
52608;SDS011;38503;48.544;12.142;2022-07-12T03:33:23;6.13;;;5.43;;
52608;SDS011;38503;48.544;12.142;2022-07-12T03:35:58;6.13;;;5.53;;
52608;SDS011;38503;48.544;12.142;2022-07-12T03:38:25;6.17;;;5.57;;
52608;SDS011;38503;48.544;12.142;2022-07-12T03:40:52;6.10;;;5.57;;
52608;SDS011;38503;48.544;12.142;2022-07-12T03:43:19;7.30;;;5.83;;
52608;SDS011;38503;48.544;12.142;2022-07-12T03:45:46;5.63;;;5.10;;
52608;SDS011;38503;48.544;12.142;2022-07-12T03:48:13;7.00;;;4.77;;
52608;SDS011;38503;48.544;12.142;2022-07-12T03:50:40;5.17;;;4.67;;
52608;SDS011;38503;48.544;12.142;2022-07-12T03:53:06;5.70;;;5.20;;
52608;SDS011;38503;48.544;12.142;2022-07-12T03:55:33;7.03;;;5.27;;
52608;SDS011;38503;48.544;12.142;2022-07-12T03:58:00;6.27;;;5.67;;
52608;SDS011;38503;48.544;12.142;2022-07-12T04:00:27;5.40;;;4.90;;
52608;SDS011;38503;48.544;12.142;2022-07-12T04:02:54;5.30;;;4.80;;
52608;SDS011;38503;48.544;12.142;2022-07-12T04:05:21;5.30;;;4.80;;
52608;SDS011;38503;48.544;12.142;2022-07-12T04:07:52;5.83;;;5.20;;
52608;SDS011;38503;48.544;12.142;2022-07-12T04:10:20;5.73;;;4.53;;
52608;SDS011;38503;48.544;12.142;2022-07-12T04:12:47;5.50;;;5.00;;
52608;SDS011;38503;48.544;12.142;2022-07-12T04:15:14;5.40;;;4.63;;
52608;SDS011;38503;48.544;12.142;2022-07-12T04:17:41;5.93;;;4.60;;
52608;SDS011;38503;48.544;12.142;2022-07-12T04:20:08;5.47;;;4.70;;
52608;SDS011;38503;48.544;12.142;2022-07-12T04:22:36;5.13;;;4.37;;
52608;SDS011;38503;48.544;12.142;2022-07-12T04:25:03;5.97;;;4.47;;
52608;SDS011;38503;48.544;12.142;2022-07-12T04:27:32;5.27;;;4.77;;
52608;SDS011;38503;48.544;12.142;2022-07-12T04:29:59;4.80;;;4.40;;
52608;SDS011;38503;48.544;12.142;2022-07-12T04:32:29;6.17;;;4.40;;
52608;SDS011;38503;48.544;12.142;2022-07-12T04:34:56;4.93;;;4.53;;
52608;SDS011;38503;48.544;12.142;2022-07-12T04:37:23;5.43;;;4.80;;
52608;SDS011;38503;48.544;12.142;2022-07-12T04:39:49;4.90;;;4.50;;
52608;SDS011;38503;48.544;12.142;2022-07-12T04:42:16;5.40;;;4.73;;
52608;SDS011;38503;48.544;12.142;2022-07-12T04:44:43;5.57;;;4.73;;
52608;SDS011;38503;48.544;12.142;2022-07-12T04:47:10;5.23;;;4.37;;
52608;SDS011;38503;48.544;12.142;2022-07-12T04:49:37;4.97;;;4.47;;
52608;SDS011;38503;48.544;12.142;2022-07-12T04:52:05;5.73;;;4.60;;
52608;SDS011;38503;48.544;12.142;2022-07-12T04:54:32;5.67;;;5.17;;
52608;SDS011;38503;48.544;12.142;2022-07-12T04:56:59;5.53;;;5.00;;
52608;SDS011;38503;48.544;12.142;2022-07-12T04:59:26;6.40;;;5.00;;
52608;SDS011;38503;48.544;12.142;2022-07-12T05:01:52;5.17;;;4.77;;
52608;SDS011;38503;48.544;12.142;2022-07-12T05:04:20;6.00;;;5.40;;
52608;SDS011;38503;48.544;12.142;2022-07-12T05:06:47;9.57;;;7.63;;
52608;SDS011;38503;48.544;12.142;2022-07-12T05:09:14;6.70;;;5.40;;
52608;SDS011;38503;48.544;12.142;2022-07-12T05:11:41;9.80;;;8.90;;
52608;SDS011;38503;48.544;12.142;2022-07-12T05:14:08;6.07;;;5.37;;
52608;SDS011;38503;48.544;12.142;2022-07-12T05:16:35;11.63;;;10.53;;
52608;SDS011;38503;48.544;12.142;2022-07-12T05:19:03;5.83;;;5.23;;
52608;SDS011;38503;48.544;12.142;2022-07-12T05:21:29;6.80;;;5.10;;
52608;SDS011;38503;48.544;12.142;2022-07-12T05:23:56;12.93;;;11.40;;
52608;SDS011;38503;48.544;12.142;2022-07-12T05:26:23;11.63;;;9.60;;
52608;SDS011;38503;48.544;12.142;2022-07-12T05:28:54;5.40;;;4.90;;
52608;SDS011;38503;48.544;12.142;2022-07-12T05:31:21;4.50;;;4.10;;
52608;SDS011;38503;48.544;12.142;2022-07-12T05:33:51;4.30;;;3.90;;
52608;SDS011;38503;48.544;12.142;2022-07-12T05:36:17;4.03;;;3.70;;
52608;SDS011;38503;48.544;12.142;2022-07-12T05:38:45;4.57;;;3.70;;
52608;SDS011;38503;48.544;12.142;2022-07-12T05:41:12;4.03;;;3.70;;
52608;SDS011;38503;48.544;12.142;2022-07-12T05:43:39;6.27;;;3.50;;
52608;SDS011;38503;48.544;12.142;2022-07-12T05:46:05;6.90;;;4.13;;
52608;SDS011;38503;48.544;12.142;2022-07-12T05:48:33;3.80;;;3.40;;
52608;SDS011;38503;48.544;12.142;2022-07-12T05:51:00;3.30;;;3.00;;
52608;SDS011;38503;48.544;12.142;2022-07-12T05:53:46;3.90;;;3.50;;
52608;SDS011;38503;48.544;12.142;2022-07-12T05:56:13;2.93;;;2.73;;
52608;SDS011;38503;48.544;12.142;2022-07-12T05:58:40;3.23;;;2.93;;
52608;SDS011;38503;48.544;12.142;2022-07-12T06:01:07;3.27;;;2.97;;
52608;SDS011;38503;48.544;12.142;2022-07-12T06:03:34;3.93;;;3.30;;
52608;SDS011;38503;48.544;12.142;2022-07-12T06:06:01;3.40;;;3.00;;
52608;SDS011;38503;48.544;12.142;2022-07-12T06:08:28;3.10;;;2.80;;
52608;SDS011;38503;48.544;12.142;2022-07-12T06:10:55;3.20;;;3.00;;
52608;SDS011;38503;48.544;12.142;2022-07-12T06:13:22;7.10;;;5.10;;
52608;SDS011;38503;48.544;12.142;2022-07-12T06:15:50;4.20;;;3.20;;
52608;SDS011;38503;48.544;12.142;2022-07-12T06:18:17;2.97;;;2.77;;
52608;SDS011;38503;48.544;12.142;2022-07-12T06:20:44;2.83;;;2.37;;
52608;SDS011;38503;48.544;12.142;2022-07-12T06:23:11;3.27;;;2.93;;
52608;SDS011;38503;48.544;12.142;2022-07-12T06:25:39;3.03;;;2.67;;
52608;SDS011;38503;48.544;12.142;2022-07-12T06:28:09;4.13;;;2.70;;
52608;SDS011;38503;48.544;12.142;2022-07-12T06:30:36;2.67;;;2.47;;
52608;SDS011;38503;48.544;12.142;2022-07-12T06:33:03;3.00;;;2.10;;
52608;SDS011;38503;48.544;12.142;2022-07-12T06:35:30;2.73;;;2.40;;
52608;SDS011;38503;48.544;12.142;2022-07-12T06:37:57;3.90;;;2.40;;
52608;SDS011;38503;48.544;12.142;2022-07-12T06:40:24;2.33;;;2.13;;
52608;SDS011;38503;48.544;12.142;2022-07-12T06:42:51;3.63;;;2.40;;
52608;SDS011;38503;48.544;12.142;2022-07-12T06:45:19;2.77;;;2.57;;
52608;SDS011;38503;48.544;12.142;2022-07-12T06:47:48;4.93;;;2.60;;
52608;SDS011;38503;48.544;12.142;2022-07-12T06:50:14;2.30;;;2.10;;
52608;SDS011;38503;48.544;12.142;2022-07-12T06:52:41;2.70;;;2.10;;
52608;SDS011;38503;48.544;12.142;2022-07-12T06:55:08;2.23;;;1.60;;
52608;SDS011;38503;48.544;12.142;2022-07-12T06:57:35;4.50;;;2.30;;
52608;SDS011;38503;48.544;12.142;2022-07-12T07:00:04;5.75;;;5.25;;
52608;SDS011;38503;48.544;12.142;2022-07-12T07:02:31;2.45;;;2.25;;
52608;SDS011;38503;48.544;12.142;2022-07-12T07:04:59;2.50;;;2.30;;
52608;SDS011;38503;48.544;12.142;2022-07-12T07:07:26;10.93;;;9.93;;
52608;SDS011;38503;48.544;12.142;2022-07-12T07:09:53;2.55;;;2.25;;
52608;SDS011;38503;48.544;12.142;2022-07-12T07:12:19;3.42;;;2.10;;
52608;SDS011;38503;48.544;12.142;2022-07-12T07:14:47;1.75;;;1.65;;
52608;SDS011;38503;48.544;12.142;2022-07-12T07:17:15;2.90;;;2.10;;
52608;SDS011;38503;48.544;12.142;2022-07-12T07:19:43;5.57;;;1.98;;
52608;SDS011;38503;48.544;12.142;2022-07-12T07:22:11;2.72;;;1.55;;
52608;SDS011;38503;48.544;12.142;2022-07-12T07:24:38;2.50;;;1.98;;
52608;SDS011;38503;48.544;12.142;2022-07-12T07:27:06;2.95;;;1.60;;
52608;SDS011;38503;48.544;12.142;2022-07-12T07:29:34;2.03;;;1.83;;
52608;SDS011;38503;48.544;12.142;2022-07-12T07:32:20;3.17;;;1.52;;
52608;SDS011;38503;48.544;12.142;2022-07-12T07:34:47;1.87;;;1.60;;
52608;SDS011;38503;48.544;12.142;2022-07-12T07:37:16;1.63;;;1.30;;
52608;SDS011;38503;48.544;12.142;2022-07-12T07:39:43;2.40;;;1.67;;
52608;SDS011;38503;48.544;12.142;2022-07-12T07:42:10;1.50;;;1.40;;
52608;SDS011;38503;48.544;12.142;2022-07-12T07:44:37;1.70;;;1.43;;
52608;SDS011;38503;48.544;12.142;2022-07-12T07:47:24;3.10;;;1.60;;
52608;SDS011;38503;48.544;12.142;2022-07-12T07:49:54;2.20;;;1.60;;
52608;SDS011;38503;48.544;12.142;2022-07-12T07:52:21;1.50;;;1.40;;
52608;SDS011;38503;48.544;12.142;2022-07-12T07:54:48;1.53;;;1.17;;
52608;SDS011;38503;48.544;12.142;2022-07-12T07:57:15;1.40;;;1.30;;
52608;SDS011;38503;48.544;12.142;2022-07-12T07:59:42;1.80;;;1.57;;
52608;SDS011;38503;48.544;12.142;2022-07-12T08:02:10;1.30;;;1.20;;
52608;SDS011;38503;48.544;12.142;2022-07-12T08:04:38;1.60;;;1.50;;
52608;SDS011;38503;48.544;12.142;2022-07-12T08:07:05;1.83;;;1.53;;
52608;SDS011;38503;48.544;12.142;2022-07-12T08:09:32;1.70;;;1.60;;
52608;SDS011;38503;48.544;12.142;2022-07-12T08:11:59;11.57;;;10.53;;
52608;SDS011;38503;48.544;12.142;2022-07-12T08:14:26;1.70;;;1.40;;
52608;SDS011;38503;48.544;12.142;2022-07-12T08:16:53;2.30;;;1.80;;
52608;SDS011;38503;48.544;12.142;2022-07-12T08:19:20;1.27;;;1.17;;
52608;SDS011;38503;48.544;12.142;2022-07-12T08:21:47;1.77;;;1.27;;
52608;SDS011;38503;48.544;12.142;2022-07-12T08:24:13;2.67;;;1.70;;
52608;SDS011;38503;48.544;12.142;2022-07-12T08:26:40;1.40;;;1.30;;
52608;SDS011;38503;48.544;12.142;2022-07-12T08:29:07;1.73;;;1.20;;
52608;SDS011;38503;48.544;12.142;2022-07-12T08:31:34;1.33;;;1.23;;
52608;SDS011;38503;48.544;12.142;2022-07-12T08:34:02;1.08;;;0.98;;
52608;SDS011;38503;48.544;12.142;2022-07-12T08:36:29;1.45;;;1.25;;
52608;SDS011;38503;48.544;12.142;2022-07-12T08:38:59;1.40;;;1.30;;
52608;SDS011;38503;48.544;12.142;2022-07-12T08:41:26;1.10;;;1.02;;
52608;SDS011;38503;48.544;12.142;2022-07-12T08:43:53;1.30;;;1.20;;
52608;SDS011;38503;48.544;12.142;2022-07-12T08:46:20;1.97;;;1.30;;
52608;SDS011;38503;48.544;12.142;2022-07-12T08:48:47;1.47;;;1.37;;
52608;SDS011;38503;48.544;12.142;2022-07-12T08:51:20;1.60;;;1.33;;
52608;SDS011;38503;48.544;12.142;2022-07-12T08:53:55;1.50;;;1.40;;
52608;SDS011;38503;48.544;12.142;2022-07-12T08:56:38;2.23;;;1.70;;
52608;SDS011;38503;48.544;12.142;2022-07-12T08:59:13;1.50;;;1.40;;
52608;SDS011;38503;48.544;12.142;2022-07-12T09:01:48;2.47;;;1.60;;
52608;SDS011;38503;48.544;12.142;2022-07-12T09:04:20;1.60;;;1.40;;
52608;SDS011;38503;48.544;12.142;2022-07-12T09:06:48;1.83;;;1.73;;
52608;SDS011;38503;48.544;12.142;2022-07-12T09:09:30;1.50;;;1.40;;
52608;SDS011;38503;48.544;12.142;2022-07-12T09:11:58;2.50;;;1.67;;
52608;SDS011;38503;48.544;12.142;2022-07-12T09:14:25;2.77;;;1.90;;
52608;SDS011;38503;48.544;12.142;2022-07-12T09:16:59;1.70;;;1.60;;
52608;SDS011;38503;48.544;12.142;2022-07-12T09:19:31;2.38;;;1.83;;
52608;SDS011;38503;48.544;12.142;2022-07-12T09:21:58;2.55;;;1.85;;
52608;SDS011;38503;48.544;12.142;2022-07-12T09:24:26;3.42;;;3.13;;
52608;SDS011;38503;48.544;12.142;2022-07-12T09:26:59;2.60;;;2.38;;
52608;SDS011;38503;48.544;12.142;2022-07-12T09:29:27;2.33;;;2.10;;
52608;SDS011;38503;48.544;12.142;2022-07-12T09:31:55;2.13;;;2.00;;
52608;SDS011;38503;48.544;12.142;2022-07-12T09:34:40;4.37;;;2.03;;
52608;SDS011;38503;48.544;12.142;2022-07-12T09:37:26;2.40;;;2.20;;
52608;SDS011;38503;48.544;12.142;2022-07-12T09:39:54;3.03;;;2.07;;
52608;SDS011;38503;48.544;12.142;2022-07-12T09:42:21;2.13;;;1.80;;
52608;SDS011;38503;48.544;12.142;2022-07-12T09:44:54;3.75;;;1.70;;
52608;SDS011;38503;48.544;12.142;2022-07-12T09:47:21;2.40;;;1.60;;
52608;SDS011;38503;48.544;12.142;2022-07-12T09:49:50;1.70;;;1.60;;
52608;SDS011;38503;48.544;12.142;2022-07-12T09:52:22;2.65;;;1.90;;
52608;SDS011;38503;48.544;12.142;2022-07-12T09:54:51;3.78;;;2.25;;
52608;SDS011;38503;48.544;12.142;2022-07-12T09:57:31;2.20;;;2.00;;
52608;SDS011;38503;48.544;12.142;2022-07-12T10:00:00;2.33;;;2.13;;
52608;SDS011;38503;48.544;12.142;2022-07-12T10:02:28;1.92;;;1.80;;
52608;SDS011;38503;48.544;12.142;2022-07-12T10:04:56;2.65;;;1.60;;
52608;SDS011;38503;48.544;12.142;2022-07-12T10:07:25;4.50;;;4.10;;
52608;SDS011;38503;48.544;12.142;2022-07-12T10:09:53;2.00;;;1.80;;
52608;SDS011;38503;48.544;12.142;2022-07-12T10:12:21;1.95;;;1.55;;
52608;SDS011;38503;48.544;12.142;2022-07-12T10:14:57;1.85;;;1.42;;
52608;SDS011;38503;48.544;12.142;2022-07-12T10:17:28;2.45;;;1.50;;
52608;SDS011;38503;48.544;12.142;2022-07-12T10:20:15;1.70;;;1.27;;
52608;SDS011;38503;48.544;12.142;2022-07-12T10:22:54;2.17;;;1.50;;
52608;SDS011;38503;48.544;12.142;2022-07-12T10:25:42;1.60;;;1.50;;
52608;SDS011;38503;48.544;12.142;2022-07-12T10:28:09;2.10;;;1.52;;
52608;SDS011;38503;48.544;12.142;2022-07-12T10:30:49;1.70;;;1.60;;
52608;SDS011;38503;48.544;12.142;2022-07-12T10:33:23;1.60;;;1.50;;
52608;SDS011;38503;48.544;12.142;2022-07-12T10:36:00;1.67;;;1.58;;
52608;SDS011;38503;48.544;12.142;2022-07-12T10:38:39;3.25;;;1.65;;
52608;SDS011;38503;48.544;12.142;2022-07-12T10:41:19;1.50;;;1.40;;
52608;SDS011;38503;48.544;12.142;2022-07-12T10:44:02;1.60;;;1.50;;
52608;SDS011;38503;48.544;12.142;2022-07-12T10:46:33;3.58;;;1.73;;
52608;SDS011;38503;48.544;12.142;2022-07-12T10:54:37;1.97;;;1.70;;
52608;SDS011;38503;48.544;12.142;2022-07-12T10:57:04;1.70;;;1.50;;
52608;SDS011;38503;48.544;12.142;2022-07-12T10:59:33;1.67;;;1.57;;
52608;SDS011;38503;48.544;12.142;2022-07-12T11:02:01;1.70;;;1.50;;
52608;SDS011;38503;48.544;12.142;2022-07-12T11:04:48;1.67;;;1.53;;
52608;SDS011;38503;48.544;12.142;2022-07-12T11:07:17;1.60;;;1.50;;
52608;SDS011;38503;48.544;12.142;2022-07-12T11:09:45;1.80;;;1.70;;
52608;SDS011;38503;48.544;12.142;2022-07-12T11:12:17;3.90;;;3.53;;
52608;SDS011;38503;48.544;12.142;2022-07-12T11:14:45;1.85;;;1.73;;
52608;SDS011;38503;48.544;12.142;2022-07-12T11:17:12;1.70;;;1.60;;
52608;SDS011;38503;48.544;12.142;2022-07-12T11:19:40;2.42;;;2.22;;
52608;SDS011;38503;48.544;12.142;2022-07-12T11:22:07;2.50;;;1.50;;
52608;SDS011;38503;48.544;12.142;2022-07-12T11:24:34;1.30;;;1.20;;
52608;SDS011;38503;48.544;12.142;2022-07-12T11:27:03;2.88;;;1.95;;
52608;SDS011;38503;48.544;12.142;2022-07-12T11:29:31;2.28;;;1.90;;
52608;SDS011;38503;48.544;12.142;2022-07-12T11:32:00;2.10;;;1.50;;
52608;SDS011;38503;48.544;12.142;2022-07-12T11:34:36;1.60;;;1.42;;
52608;SDS011;38503;48.544;12.142;2022-07-12T11:37:03;1.80;;;1.40;;
52608;SDS011;38503;48.544;12.142;2022-07-12T11:39:33;1.67;;;1.40;;
52608;SDS011;38503;48.544;12.142;2022-07-12T11:42:00;2.30;;;1.40;;
52608;SDS011;38503;48.544;12.142;2022-07-12T11:47:14;1.30;;;1.20;;
52608;SDS011;38503;48.544;12.142;2022-07-12T11:49:45;3.67;;;1.52;;
52608;SDS011;38503;48.544;12.142;2022-07-12T11:52:14;2.50;;;2.08;;
52608;SDS011;38503;48.544;12.142;2022-07-12T11:54:50;1.48;;;1.38;;
52608;SDS011;38503;48.544;12.142;2022-07-12T11:57:21;2.80;;;1.73;;
52608;SDS011;38503;48.544;12.142;2022-07-12T11:59:52;2.55;;;1.40;;
52608;SDS011;38503;48.544;12.142;2022-07-12T12:02:19;2.00;;;1.25;;
52608;SDS011;38503;48.544;12.142;2022-07-12T12:04:50;7.10;;;6.43;;
52608;SDS011;38503;48.544;12.142;2022-07-12T12:07:20;2.03;;;1.83;;
52608;SDS011;38503;48.544;12.142;2022-07-12T12:12:28;1.42;;;1.33;;
52608;SDS011;38503;48.544;12.142;2022-07-12T12:15:23;2.38;;;1.60;;
52608;SDS011;38503;48.544;12.142;2022-07-12T12:17:55;1.95;;;1.20;;
52608;SDS011;38503;48.544;12.142;2022-07-12T12:20:34;1.80;;;1.30;;
52608;SDS011;38503;48.544;12.142;2022-07-12T12:23:06;1.50;;;1.40;;
52608;SDS011;38503;48.544;12.142;2022-07-12T12:25:44;1.63;;;1.52;;
52608;SDS011;38503;48.544;12.142;2022-07-12T12:28:18;1.85;;;1.30;;
52608;SDS011;38503;48.544;12.142;2022-07-12T12:30:52;1.67;;;1.58;;
52608;SDS011;38503;48.544;12.142;2022-07-12T12:33:33;2.50;;;1.30;;
52608;SDS011;38503;48.544;12.142;2022-07-12T12:36:19;3.10;;;1.67;;
52608;SDS011;38503;48.544;12.142;2022-07-12T12:38:50;1.83;;;1.73;;
52608;SDS011;38503;48.544;12.142;2022-07-12T12:41:19;3.78;;;1.23;;
52608;SDS011;38503;48.544;12.142;2022-07-12T12:43:56;1.60;;;1.50;;
52608;SDS011;38503;48.544;12.142;2022-07-12T12:49:13;1.60;;;1.20;;
52608;SDS011;38503;48.544;12.142;2022-07-12T12:51:53;1.88;;;1.45;;
52608;SDS011;38503;48.544;12.142;2022-07-12T12:54:31;1.60;;;1.45;;
52608;SDS011;38503;48.544;12.142;2022-07-12T12:57:06;2.65;;;1.70;;
52608;SDS011;38503;48.544;12.142;2022-07-12T12:59:35;1.45;;;1.35;;
52608;SDS011;38503;48.544;12.142;2022-07-12T13:02:03;3.38;;;1.45;;
52608;SDS011;38503;48.544;12.142;2022-07-12T13:04:32;1.60;;;1.50;;
52608;SDS011;38503;48.544;12.142;2022-07-12T13:07:00;2.88;;;2.63;;
52608;SDS011;38503;48.544;12.142;2022-07-12T13:09:36;1.63;;;1.52;;
52608;SDS011;38503;48.544;12.142;2022-07-12T13:12:03;3.25;;;1.55;;
52608;SDS011;38503;48.544;12.142;2022-07-12T13:14:30;1.50;;;1.40;;
52608;SDS011;38503;48.544;12.142;2022-07-12T13:16:57;1.30;;;1.20;;
52608;SDS011;38503;48.544;12.142;2022-07-12T13:19:24;1.65;;;1.50;;
52608;SDS011;38503;48.544;12.142;2022-07-12T13:21:51;1.50;;;1.40;;
52608;SDS011;38503;48.544;12.142;2022-07-12T13:24:18;1.60;;;1.50;;
52608;SDS011;38503;48.544;12.142;2022-07-12T13:26:45;1.30;;;1.20;;
52608;SDS011;38503;48.544;12.142;2022-07-12T13:29:12;5.83;;;5.23;;
52608;SDS011;38503;48.544;12.142;2022-07-12T13:31:40;2.60;;;2.40;;
52608;SDS011;38503;48.544;12.142;2022-07-12T13:34:07;1.70;;;1.37;;
52608;SDS011;38503;48.544;12.142;2022-07-12T13:36:34;1.70;;;1.40;;
52608;SDS011;38503;48.544;12.142;2022-07-12T13:39:01;5.33;;;1.87;;
52608;SDS011;38503;48.544;12.142;2022-07-12T13:41:48;2.67;;;1.40;;
52608;SDS011;38503;48.544;12.142;2022-07-12T13:44:15;1.90;;;1.57;;
52608;SDS011;38503;48.544;12.142;2022-07-12T13:46:48;1.67;;;1.43;;
52608;SDS011;38503;48.544;12.142;2022-07-12T13:49:15;1.97;;;1.30;;
52608;SDS011;38503;48.544;12.142;2022-07-12T13:51:42;2.30;;;1.33;;
52608;SDS011;38503;48.544;12.142;2022-07-12T13:54:09;1.50;;;1.40;;
52608;SDS011;38503;48.544;12.142;2022-07-12T13:56:36;1.93;;;1.50;;
52608;SDS011;38503;48.544;12.142;2022-07-12T13:59:03;3.63;;;1.40;;
52608;SDS011;38503;48.544;12.142;2022-07-12T14:01:31;1.50;;;1.40;;
52608;SDS011;38503;48.544;12.142;2022-07-12T14:03:58;1.90;;;1.80;;
52608;SDS011;38503;48.544;12.142;2022-07-12T14:06:25;1.93;;;1.60;;
52608;SDS011;38503;48.544;12.142;2022-07-12T14:08:53;1.60;;;1.50;;
52608;SDS011;38503;48.544;12.142;2022-07-12T14:11:20;2.83;;;1.53;;
52608;SDS011;38503;48.544;12.142;2022-07-12T14:13:47;1.70;;;1.30;;
52608;SDS011;38503;48.544;12.142;2022-07-12T14:16:14;3.30;;;1.40;;
52608;SDS011;38503;48.544;12.142;2022-07-12T14:18:41;2.40;;;2.20;;
52608;SDS011;38503;48.544;12.142;2022-07-12T14:21:08;1.87;;;1.77;;
52608;SDS011;38503;48.544;12.142;2022-07-12T14:23:35;1.83;;;1.40;;
52608;SDS011;38503;48.544;12.142;2022-07-12T14:26:03;2.93;;;1.60;;
52608;SDS011;38503;48.544;12.142;2022-07-12T14:28:31;1.57;;;1.47;;
52608;SDS011;38503;48.544;12.142;2022-07-12T14:30:58;1.37;;;1.27;;
52608;SDS011;38503;48.544;12.142;2022-07-12T14:33:25;3.23;;;1.80;;
52608;SDS011;38503;48.544;12.142;2022-07-12T14:35:52;1.50;;;1.40;;
52608;SDS011;38503;48.544;12.142;2022-07-12T14:38:19;1.80;;;1.40;;
52608;SDS011;38503;48.544;12.142;2022-07-12T14:40:45;3.93;;;1.73;;
52608;SDS011;38503;48.544;12.142;2022-07-12T14:43:12;1.53;;;1.43;;
52608;SDS011;38503;48.544;12.142;2022-07-12T14:45:39;1.40;;;1.30;;
52608;SDS011;38503;48.544;12.142;2022-07-12T14:48:08;2.00;;;1.40;;
52608;SDS011;38503;48.544;12.142;2022-07-12T14:50:37;2.10;;;1.60;;
52608;SDS011;38503;48.544;12.142;2022-07-12T14:53:04;1.53;;;1.43;;
52608;SDS011;38503;48.544;12.142;2022-07-12T14:55:31;3.17;;;1.70;;
52608;SDS011;38503;48.544;12.142;2022-07-12T14:57:58;2.87;;;1.60;;